createdAt,value
2022-09-07T00:01:53.330Z,1333.50
2022-09-07T00:04:21.054Z,1287.33
2022-09-07T00:06:48.798Z,1446.30
2022-09-07T00:09:16.456Z,1372.97
2022-09-07T00:11:44.147Z,1458.20
2022-09-07T00:14:11.805Z,1607.27
2022-09-07T00:16:39.576Z,1375.30
2022-09-07T00:19:08.625Z,1426.97
2022-09-07T00:21:36.279Z,1560.70
2022-09-07T00:24:04.463Z,1314.07
2022-09-07T00:26:32.346Z,1466.60
2022-09-07T00:29:00.867Z,1707.63
2022-09-07T00:31:29.437Z,1608.17
2022-09-07T00:33:59.328Z,1356.87
2022-09-07T00:36:28.550Z,1280.07
2022-09-07T00:38:56.448Z,1280.70
2022-09-07T00:41:24.401Z,1353.97
2022-09-07T00:43:53.390Z,1198.40
2022-09-07T00:46:23.365Z,1179.70
2022-09-07T00:48:54.711Z,1280.00
2022-09-07T00:51:27.453Z,1272.00
2022-09-07T00:54:00.061Z,1429.90
2022-09-07T00:56:31.098Z,1321.13
2022-09-07T00:58:59.119Z,309.13
2022-09-07T01:01:27.231Z,283.50
2022-09-07T01:03:56.847Z,515.40
2022-09-07T01:06:27.849Z,523.57
2022-09-07T01:08:58.271Z,277.33
2022-09-07T01:11:26.280Z,149.93
2022-09-07T01:13:54.933Z,193.57
2022-09-07T01:16:33.795Z,459.13
2022-09-07T01:19:11.278Z,228.43
2022-09-07T01:21:48.787Z,228.07
2022-09-07T01:24:43.428Z,238.90
2022-09-07T01:27:35.002Z,144.07
2022-09-07T01:30:07.095Z,478.60
2022-09-07T01:32:44.981Z,318.77
2022-09-07T01:35:18.618Z,267.20
2022-09-07T01:37:55.058Z,257.03
2022-09-07T01:40:30.155Z,307.93
2022-09-07T01:43:02.426Z,143.87
2022-09-07T01:45:33.183Z,223.57
2022-09-07T01:48:04.786Z,261.00
2022-09-07T01:50:35.095Z,203.40
2022-09-07T01:53:07.472Z,424.70
2022-09-07T01:55:38.443Z,307.63
2022-09-07T01:58:12.813Z,335.03
2022-09-07T02:00:42.641Z,279.33
2022-09-07T02:03:14.758Z,490.10
2022-09-07T02:05:48.043Z,387.63
2022-09-07T02:08:18.910Z,363.77
2022-09-07T02:10:50.357Z,528.97
2022-09-07T02:13:23.450Z,528.47
2022-09-07T02:15:53.325Z,218.17
2022-09-07T02:18:22.816Z,236.50
2022-09-07T02:20:52.882Z,269.00
2022-09-07T02:23:23.715Z,246.53
2022-09-07T02:25:58.140Z,538.70
2022-09-07T02:28:29.892Z,447.33
2022-09-07T02:30:57.699Z,561.07
2022-09-07T02:33:25.435Z,351.23
2022-09-07T02:35:53.415Z,361.20
2022-09-07T02:38:21.224Z,325.33
2022-09-07T02:40:52.254Z,341.77
2022-09-07T02:43:20.498Z,351.67
2022-09-07T02:46:03.613Z,359.73
2022-09-07T02:48:38.659Z,337.23
2022-09-07T02:51:13.579Z,512.60
2022-09-07T02:53:52.162Z,543.50
2022-09-07T02:56:28.510Z,512.20
2022-09-07T02:59:05.320Z,461.97
2022-09-07T03:01:38.709Z,493.17
2022-09-07T03:04:09.900Z,469.83
2022-09-07T03:06:40.727Z,450.63
2022-09-07T03:09:11.678Z,591.93
2022-09-07T03:11:39.786Z,623.53
2022-09-07T03:14:15.839Z,532.60
2022-09-07T03:16:45.748Z,505.20
2022-09-07T03:19:13.406Z,552.67
2022-09-07T03:21:41.080Z,584.10
2022-09-07T03:24:08.995Z,589.17
2022-09-07T03:26:40.374Z,518.10
2022-09-07T03:29:08.139Z,526.03
2022-09-07T03:31:35.962Z,534.27
2022-09-07T03:34:05.446Z,616.47
2022-09-07T03:36:33.839Z,490.50
2022-09-07T03:39:01.502Z,488.53
2022-09-07T03:41:29.491Z,222.50
2022-09-07T03:43:57.184Z,388.53
2022-09-07T03:46:24.914Z,481.90
2022-09-07T03:48:52.814Z,498.83
2022-09-07T03:51:21.848Z,398.33
2022-09-07T03:53:51.208Z,406.00
2022-09-07T03:56:21.198Z,489.60
2022-09-07T03:58:49.870Z,412.20
2022-09-07T04:01:19.973Z,411.13
2022-09-07T04:03:48.280Z,529.60
2022-09-07T04:06:16.308Z,519.10
2022-09-07T04:08:45.722Z,498.57
2022-09-07T04:11:15.255Z,410.83
2022-09-07T04:13:43.270Z,167.50
2022-09-07T04:16:12.712Z,130.73
2022-09-07T04:18:40.468Z,354.30
2022-09-07T04:21:08.470Z,228.87
2022-09-07T04:23:38.934Z,235.70
2022-09-07T04:26:12.236Z,203.87
2022-09-07T04:28:39.907Z,139.80
2022-09-07T04:31:07.735Z,125.70
2022-09-07T04:33:35.430Z,320.57
2022-09-07T04:36:03.818Z,133.63
2022-09-07T04:38:31.809Z,401.80
2022-09-07T04:41:00.975Z,336.57
2022-09-07T04:43:30.639Z,96.73
2022-09-07T04:45:58.992Z,102.47
2022-09-07T04:48:26.665Z,94.17
2022-09-07T04:50:54.340Z,104.77
2022-09-07T04:53:22.057Z,99.53
2022-09-07T04:55:49.731Z,140.33
2022-09-07T04:58:17.383Z,116.23
2022-09-07T05:00:46.456Z,237.07
2022-09-07T05:03:14.188Z,87.17
2022-09-07T05:05:41.886Z,103.50
2022-09-07T05:08:09.628Z,113.57
2022-09-07T05:10:37.367Z,211.40
2022-09-07T05:13:05.098Z,101.93
2022-09-07T05:15:32.807Z,234.20
2022-09-07T05:18:01.844Z,96.17
2022-09-07T05:20:29.608Z,109.50
2022-09-07T05:22:59.426Z,221.47
2022-09-07T05:25:28.967Z,101.33
2022-09-07T05:27:56.703Z,339.90
2022-09-07T05:33:13.659Z,100.93
2022-09-07T05:35:41.296Z,89.73
2022-09-07T05:38:08.973Z,101.97
2022-09-07T05:40:40.535Z,105.87
2022-09-07T05:43:09.820Z,89.60
2022-09-07T05:45:37.622Z,100.90
2022-09-07T05:48:05.355Z,173.50
2022-09-07T05:50:34.438Z,95.13
2022-09-07T05:53:02.227Z,124.10
2022-09-07T05:55:31.864Z,115.03
2022-09-07T05:57:59.519Z,241.27
2022-09-07T06:00:27.200Z,214.73
2022-09-07T06:02:54.967Z,139.50
2022-09-07T06:05:22.685Z,272.53
2022-09-07T06:07:53.015Z,351.47
2022-09-07T06:13:08.463Z,102.40
2022-09-07T06:15:36.134Z,445.00
2022-09-07T06:18:03.859Z,221.33
2022-09-07T06:20:31.511Z,77.97
2022-09-07T06:23:01.201Z,215.07
2022-09-07T06:25:28.847Z,334.90
2022-09-07T06:27:56.538Z,122.17
2022-09-07T06:30:25.245Z,105.80
2022-09-07T06:32:53.000Z,349.13
2022-09-07T06:35:20.742Z,296.90
2022-09-07T06:37:48.404Z,106.97
2022-09-07T06:40:17.522Z,132.37
2022-09-07T06:42:45.187Z,414.67
2022-09-07T06:45:12.853Z,139.50
2022-09-07T06:47:40.925Z,144.93
2022-09-07T06:50:09.892Z,158.67
2022-09-07T06:55:27.817Z,98.23
2022-09-07T06:57:55.708Z,105.57
2022-09-07T07:00:23.385Z,435.73
2022-09-07T07:02:51.138Z,106.57
2022-09-07T07:05:18.833Z,137.53
2022-09-07T07:07:46.496Z,373.33
2022-09-07T07:10:14.172Z,119.67
2022-09-07T07:15:10.400Z,421.43
2022-09-07T07:17:38.061Z,156.03
2022-09-07T07:20:07.028Z,456.90
2022-09-07T07:22:49.939Z,235.80
2022-09-07T07:25:17.659Z,247.17
2022-09-07T07:27:47.125Z,272.07
2022-09-07T07:30:15.498Z,205.37
2022-09-07T07:32:43.886Z,156.47
2022-09-07T07:35:11.588Z,132.40
2022-09-07T07:37:39.559Z,125.03
2022-09-07T07:40:18.513Z,95.93
2022-09-07T07:42:50.290Z,104.90
2022-09-07T07:48:06.050Z,476.87
2022-09-07T07:50:34.255Z,107.93
2022-09-07T07:55:49.958Z,127.63
2022-09-07T07:58:19.047Z,488.33
2022-09-07T08:00:55.437Z,432.43
2022-09-07T08:03:24.814Z,102.13
2022-09-07T08:05:53.027Z,108.13
2022-09-07T08:08:20.950Z,507.57
2022-09-07T08:10:48.631Z,184.97
2022-09-07T08:13:16.651Z,393.03
2022-09-07T08:15:46.234Z,152.27
2022-09-07T08:18:14.338Z,139.13
2022-09-07T08:20:42.019Z,115.67
2022-09-07T08:23:10.589Z,109.33
2022-09-07T08:25:38.323Z,507.07
2022-09-07T08:28:06.642Z,173.30
2022-09-07T08:30:34.156Z,519.90
2022-09-07T08:33:03.012Z,522.60
2022-09-07T08:35:30.512Z,504.73
2022-09-07T08:37:58.043Z,524.13
2022-09-07T08:40:25.548Z,539.00
2022-09-07T08:43:03.731Z,217.33
2022-09-07T08:45:33.932Z,104.30
2022-09-07T08:48:05.671Z,140.73
2022-09-07T08:50:36.714Z,153.47
2022-09-07T08:53:09.480Z,116.97
2022-09-07T08:55:40.479Z,106.13
2022-09-07T08:58:26.983Z,153.43
2022-09-07T09:06:43.784Z,541.97
2022-09-07T09:09:19.494Z,399.10
2022-09-07T09:11:53.509Z,99.93
2022-09-07T09:14:31.698Z,533.50
2022-09-07T09:17:01.366Z,151.80
2022-09-07T09:19:42.642Z,137.70
2022-09-07T09:22:13.647Z,141.37
2022-09-07T09:24:48.155Z,549.40
2022-09-07T09:27:16.309Z,142.70
2022-09-07T09:29:43.857Z,551.30
2022-09-07T09:32:34.671Z,144.07
2022-09-07T09:35:06.658Z,536.67
2022-09-07T09:37:35.612Z,118.33
2022-09-07T09:40:03.878Z,155.87
2022-09-07T09:42:34.739Z,155.87
2022-09-07T09:45:12.018Z,146.87
2022-09-07T09:47:39.745Z,174.40
2022-09-07T09:53:06.961Z,153.97
2022-09-07T09:55:37.365Z,571.83
2022-09-07T10:04:04.669Z,138.07
2022-09-07T10:06:34.940Z,159.43
2022-09-07T10:09:02.985Z,136.63
2022-09-07T10:14:32.083Z,153.90
2022-09-07T10:17:01.894Z,162.60
2022-09-07T10:19:34.695Z,129.30
2022-09-07T10:22:05.370Z,560.80
2022-09-07T10:24:37.997Z,531.70
2022-09-07T10:27:20.352Z,575.03
2022-09-07T10:29:48.120Z,184.10
2022-09-07T10:32:26.287Z,166.63
2022-09-07T10:35:05.352Z,183.47
2022-09-07T10:37:43.377Z,233.43
2022-09-07T10:40:23.091Z,197.27
2022-09-07T10:45:53.495Z,195.53
2022-09-07T10:48:25.512Z,113.93
2022-09-07T10:50:56.119Z,193.90
2022-09-07T10:53:43.114Z,172.60
2022-09-07T10:56:13.434Z,581.47
2022-09-07T10:59:02.294Z,619.93
2022-09-07T11:01:38.766Z,608.87
2022-09-07T11:04:22.335Z,160.33
2022-09-07T11:06:51.194Z,160.03
2022-09-07T11:09:41.990Z,608.60
2022-09-07T11:12:11.479Z,140.90
2022-09-07T11:14:43.940Z,513.00
2022-09-07T11:17:15.747Z,619.77
2022-09-07T11:19:47.298Z,146.43
2022-09-07T11:22:26.291Z,190.23
2022-09-07T11:27:48.777Z,660.17
2022-09-07T11:30:24.426Z,244.33
2022-09-07T11:33:00.743Z,617.70
2022-09-07T11:35:36.147Z,201.03
2022-09-07T11:38:11.650Z,547.20
2022-09-07T11:40:44.812Z,258.67
2022-09-07T11:43:17.632Z,209.13
2022-09-07T11:45:49.049Z,205.57
2022-09-07T11:48:19.861Z,657.70
2022-09-07T11:50:50.133Z,649.97
2022-09-07T11:53:19.628Z,196.87
2022-09-07T11:55:50.840Z,661.17
2022-09-07T11:58:58.182Z,240.20
2022-09-07T12:01:33.446Z,196.97
2022-09-07T12:04:24.732Z,656.33
2022-09-07T12:07:14.967Z,612.80
2022-09-07T12:09:54.804Z,695.13
2022-09-07T12:12:56.548Z,258.80
2022-09-07T12:15:31.537Z,242.17
2022-09-07T12:18:11.636Z,278.07
2022-09-07T12:20:43.528Z,249.17
2022-09-07T12:23:25.643Z,254.50
2022-09-07T12:25:54.408Z,286.70
2022-09-07T12:28:55.081Z,270.67
2022-09-07T12:31:57.408Z,267.87
2022-09-07T12:34:52.075Z,646.97
2022-09-07T12:37:40.718Z,278.67
2022-09-07T12:40:45.543Z,695.70
2022-09-07T12:43:32.916Z,653.57
2022-09-07T12:46:01.682Z,658.20
2022-09-07T12:48:43.494Z,335.10
2022-09-07T12:51:16.731Z,174.30
2022-09-07T12:53:49.062Z,282.40
2022-09-07T12:56:32.505Z,742.37
2022-09-07T12:59:17.360Z,250.50
2022-09-07T13:01:53.346Z,300.67
2022-09-07T13:04:46.179Z,244.17
2022-09-07T13:07:34.239Z,643.33
2022-09-07T13:10:03.742Z,292.33
2022-09-07T13:15:34.935Z,269.33
2022-09-07T13:18:03.470Z,224.97
2022-09-07T13:20:37.578Z,647.40
2022-09-07T13:23:23.948Z,667.23
2022-09-07T13:25:54.663Z,716.07
2022-09-07T13:28:26.358Z,667.67
2022-09-07T13:31:03.211Z,716.33
2022-09-07T13:33:45.926Z,722.57
2022-09-07T13:36:24.063Z,669.80
2022-09-07T13:38:51.767Z,540.33
2022-09-07T13:41:22.834Z,325.47
2022-09-07T13:43:52.079Z,334.97
2022-09-07T13:46:32.326Z,349.60
2022-09-07T13:49:07.710Z,523.67
2022-09-07T13:51:39.059Z,702.13
2022-09-07T13:54:11.544Z,339.80
2022-09-07T13:56:43.083Z,286.63
2022-09-07T13:59:19.696Z,320.63
2022-09-07T14:01:48.688Z,275.03
2022-09-07T14:04:23.344Z,326.37
2022-09-07T14:06:52.501Z,275.97
2022-09-07T14:09:22.669Z,294.13
2022-09-07T14:11:51.291Z,310.90
2022-09-07T14:14:20.579Z,332.27
2022-09-07T14:16:50.802Z,318.40
2022-09-07T14:19:21.887Z,431.97
2022-09-07T14:21:58.891Z,364.60
2022-09-07T14:24:34.588Z,432.67
2022-09-07T14:27:02.607Z,258.10
2022-09-07T14:29:32.699Z,273.93
2022-09-07T14:32:02.019Z,216.57
2022-09-07T14:34:32.548Z,312.93
2022-09-07T14:37:05.400Z,299.63
2022-09-07T14:39:36.665Z,414.43
2022-09-07T14:42:04.490Z,374.97
2022-09-07T14:44:34.583Z,297.40
2022-09-07T14:47:06.013Z,593.80
2022-09-07T14:49:33.681Z,326.50
2022-09-07T14:52:02.940Z,306.90
2022-09-07T14:54:32.525Z,263.17
2022-09-07T14:57:02.812Z,406.30
2022-09-07T14:59:38.791Z,261.77
2022-09-07T15:02:32.884Z,201.70
2022-09-07T15:05:24.019Z,166.63
2022-09-07T15:07:55.543Z,207.60
2022-09-07T15:10:36.777Z,551.93
2022-09-07T15:13:06.523Z,192.60
2022-09-07T15:15:37.163Z,332.40
2022-09-07T15:18:09.140Z,291.10
2022-09-07T15:20:38.779Z,258.07
2022-09-07T15:23:10.948Z,609.60
2022-09-07T15:25:40.424Z,625.33
2022-09-07T15:28:08.238Z,549.73
2022-09-07T15:30:35.892Z,349.30
2022-09-07T15:33:03.488Z,272.70
2022-09-07T15:35:30.992Z,595.80
2022-09-07T15:38:02.906Z,294.33
2022-09-07T15:40:51.292Z,296.23
2022-09-07T15:43:26.815Z,339.90
2022-09-07T15:45:55.854Z,300.20
2022-09-07T15:48:25.215Z,228.77
2022-09-07T15:50:54.006Z,601.03
2022-09-07T15:56:10.564Z,237.67
2022-09-07T15:58:38.135Z,571.23
2022-09-07T16:03:54.190Z,619.53
2022-09-07T16:06:22.520Z,633.30
2022-09-07T16:08:51.524Z,324.80
2022-09-07T16:11:23.935Z,178.37
2022-09-07T16:13:57.349Z,574.47
2022-09-07T16:17:26.642Z,594.93
2022-09-07T16:19:14.366Z,656.50
2022-09-07T16:21:42.772Z,545.60
2022-09-07T16:24:10.295Z,646.20
2022-09-07T16:26:39.164Z,338.63
2022-09-07T16:29:06.643Z,593.87
2022-09-07T16:31:35.407Z,319.53
2022-09-07T16:34:03.600Z,524.73
2022-09-07T16:36:31.271Z,596.83
2022-09-07T16:39:00.519Z,577.20
2022-09-07T16:41:31.292Z,273.83
2022-09-07T16:44:00.176Z,305.67
2022-09-07T16:46:30.495Z,294.87
2022-09-07T16:48:58.302Z,276.53
2022-09-07T16:51:25.977Z,329.10
2022-09-07T16:53:54.846Z,337.90
2022-09-07T16:56:23.999Z,347.80
2022-09-07T16:58:53.247Z,328.73
2022-09-07T17:01:23.605Z,431.87
2022-09-07T17:03:51.721Z,296.53
2022-09-07T17:06:21.116Z,297.10
2022-09-07T17:08:49.120Z,282.63
2022-09-07T17:11:18.059Z,311.77
2022-09-07T17:13:46.504Z,273.30
2022-09-07T17:16:15.399Z,250.17
2022-09-07T17:21:33.227Z,258.67
2022-09-07T17:24:01.640Z,156.73
2022-09-07T17:26:31.335Z,217.20
2022-09-07T17:29:00.633Z,595.00
2022-09-07T17:34:19.773Z,217.87
2022-09-07T17:36:47.408Z,311.40
2022-09-07T17:39:17.125Z,419.57
2022-09-07T17:41:45.832Z,603.60
2022-09-07T17:44:13.387Z,289.37
2022-09-07T17:46:40.957Z,297.70
2022-09-07T17:49:13.860Z,274.90
2022-09-07T17:51:43.206Z,207.47
2022-09-07T17:54:12.828Z,246.47
2022-09-07T17:56:41.147Z,392.20
2022-09-07T18:01:56.713Z,241.03
2022-09-07T18:04:24.546Z,248.03
2022-09-07T18:06:54.235Z,281.40
2022-09-07T18:09:21.920Z,226.30
2022-09-07T18:11:50.490Z,225.43
2022-09-07T18:14:19.072Z,231.53
2022-09-07T18:16:48.841Z,236.90
2022-09-07T18:19:17.872Z,220.73
2022-09-07T18:21:45.565Z,207.50
2022-09-07T18:24:16.796Z,271.23
2022-09-07T18:26:49.625Z,242.87
2022-09-07T18:29:28.714Z,274.97
2022-09-07T18:31:58.939Z,236.80
2022-09-07T18:34:28.401Z,250.03
2022-09-07T18:36:57.086Z,329.33
2022-09-07T18:39:26.352Z,439.80
2022-09-07T18:41:54.885Z,150.33
2022-09-07T18:47:21.135Z,249.70
2022-09-07T18:49:50.917Z,236.03
2022-09-07T18:55:09.762Z,261.53
2022-09-07T18:57:37.671Z,537.63
2022-09-07T19:00:06.703Z,534.07
2022-09-07T19:02:34.352Z,576.47
2022-09-07T19:07:49.682Z,536.70
2022-09-07T19:10:18.930Z,381.23
2022-09-07T19:12:46.563Z,518.60
2022-09-07T19:15:14.393Z,254.43
2022-09-07T19:17:41.936Z,245.70
2022-09-07T19:20:10.645Z,178.27
2022-09-07T19:22:38.915Z,242.23
2022-09-07T19:25:07.056Z,183.10
2022-09-07T19:27:36.902Z,381.60
2022-09-07T19:30:05.080Z,269.80
2022-09-07T19:32:32.598Z,225.40
2022-09-07T19:35:00.091Z,147.93
2022-09-07T19:37:28.871Z,526.40
2022-09-07T19:39:56.781Z,243.17
2022-09-07T19:42:24.907Z,529.03
2022-09-07T19:44:54.017Z,534.90
2022-09-07T19:47:22.046Z,510.37
2022-09-07T19:49:49.563Z,359.37
2022-09-07T19:52:17.079Z,297.50
2022-09-07T19:54:44.569Z,544.43
2022-09-07T19:57:12.132Z,177.77
2022-09-07T19:59:39.645Z,486.83
2022-09-07T20:02:10.403Z,490.13
2022-09-07T20:04:38.025Z,495.83
2022-09-07T20:07:06.512Z,527.93
2022-09-07T20:09:34.025Z,546.17
2022-09-07T20:12:03.646Z,516.20
2022-09-07T20:14:31.159Z,214.53
2022-09-07T20:16:58.660Z,218.23
2022-09-07T20:19:27.840Z,130.13
2022-09-07T20:21:56.009Z,124.20
2022-09-07T20:24:23.700Z,179.50
2022-09-07T20:26:51.447Z,183.20
2022-09-07T20:29:28.121Z,462.67
2022-09-07T20:31:56.160Z,312.57
2022-09-07T20:34:23.672Z,192.50
2022-09-07T20:36:52.974Z,248.73
2022-09-07T20:39:21.188Z,459.23
2022-09-07T20:41:48.729Z,473.97
2022-09-07T20:44:16.604Z,382.77
2022-09-07T20:46:44.601Z,504.90
2022-09-07T20:49:12.139Z,264.90
2022-09-07T20:51:39.699Z,315.70
2022-09-07T20:54:08.772Z,522.73
2022-09-07T20:56:36.606Z,498.50
2022-09-07T20:59:04.568Z,346.40
2022-09-07T21:01:33.267Z,469.80
2022-09-07T21:04:01.684Z,497.77
2022-09-07T21:06:30.106Z,179.27
2022-09-07T21:08:58.000Z,226.57
2022-09-07T21:11:28.235Z,383.17
2022-09-07T21:13:56.974Z,202.40
2022-09-07T21:16:24.573Z,174.83
2022-09-07T21:18:56.688Z,501.73
2022-09-07T21:21:25.069Z,180.30
2022-09-07T21:23:55.919Z,506.07
2022-09-07T21:26:23.654Z,144.53
2022-09-07T21:28:56.977Z,106.10
2022-09-07T21:31:24.914Z,125.43
2022-09-07T21:33:55.068Z,143.77
2022-09-07T21:36:22.729Z,156.60
2022-09-07T21:38:50.307Z,191.53
2022-09-07T21:41:20.266Z,170.90
2022-09-07T21:43:47.823Z,172.83
2022-09-07T21:46:18.075Z,153.53
2022-09-07T21:48:46.410Z,523.50
2022-09-07T21:51:14.668Z,187.00
2022-09-07T21:53:42.369Z,146.87
2022-09-07T21:56:12.490Z,106.33
2022-09-07T21:58:40.254Z,138.80
2022-09-07T22:01:12.215Z,121.70
2022-09-07T22:03:41.669Z,123.37
2022-09-07T22:06:09.558Z,140.07
2022-09-07T22:08:38.095Z,145.70
2022-09-07T22:11:07.166Z,135.00
2022-09-07T22:13:35.238Z,147.63
2022-09-07T22:16:03.732Z,178.23
2022-09-07T22:18:31.643Z,244.43
2022-09-07T22:21:05.401Z,134.30
2022-09-07T22:23:33.612Z,494.07
2022-09-07T22:26:01.231Z,139.27
2022-09-07T22:28:30.153Z,196.80
2022-09-07T22:30:57.945Z,123.23
2022-09-07T22:33:25.496Z,183.53
2022-09-07T22:35:53.027Z,125.73
2022-09-07T22:38:21.856Z,218.27
2022-09-07T22:40:49.481Z,120.30
2022-09-07T22:43:16.989Z,155.27
2022-09-07T22:45:44.487Z,135.67
2022-09-07T22:48:11.999Z,146.00
2022-09-07T22:50:39.578Z,96.23
2022-09-07T22:53:07.059Z,138.10
2022-09-07T22:55:40.077Z,109.13
2022-09-07T22:58:07.591Z,113.70
2022-09-07T23:00:36.603Z,89.27
2022-09-07T23:03:04.913Z,343.97
2022-09-07T23:05:36.854Z,454.57
2022-09-07T23:08:04.594Z,438.17
2022-09-07T23:10:35.053Z,203.33
2022-09-07T23:13:03.988Z,112.73
2022-09-07T23:15:31.656Z,320.83
2022-09-07T23:17:59.152Z,165.20
2022-09-07T23:20:26.642Z,114.33
2022-09-07T23:22:54.187Z,121.10
2022-09-07T23:25:21.683Z,425.93
2022-09-07T23:27:49.196Z,138.13
2022-09-07T23:30:18.070Z,203.63
2022-09-07T23:32:45.923Z,127.90
2022-09-07T23:35:16.543Z,132.90
2022-09-07T23:37:44.264Z,173.20
2022-09-07T23:40:12.189Z,155.57
2022-09-07T23:42:39.716Z,151.73
2022-09-07T23:45:08.094Z,104.77
2022-09-07T23:47:36.972Z,295.63
2022-09-07T23:50:05.099Z,111.00
2022-09-07T23:52:32.971Z,226.23
2022-09-07T23:55:00.564Z,108.67
2022-09-07T23:57:28.049Z,140.93
2022-09-07T23:59:55.539Z,90.93
